Terminal Aerodrome Forecast
Issued by NWS

Current Version | Previous Version | Text Only | Print | Product List | Glossary On
Versions: 1 2 3 4 5 6 7 8 9 10 11 12 13 14 15 16
815
FTUS43 KGRB 291139
TAFMTW
TAF
KMTW 291139Z 2912/3012 19010KT P6SM BKN040 WS020/25035KT
     FM291300 24012G18KT P6SM BKN040
      TEMPO 2913/2915 BKN025
     FM291800 26013G21KT P6SM BKN050
     FM300000 27008KT P6SM BKN080
     FM300800 VRB03KT 6SM BR BKN040
      TEMPO 3008/3012 3SM BR=

USA.gov is the U.S. government's official web portal to all federal, state and local government web resources and services.